sensor_id;sensor_type;location;lat;lon;timestamp;temperature;humidity
14101;DHT22;7127;49.372;8.166;2022-07-23T00:00:07;28.00;43.80
14101;DHT22;7127;49.372;8.166;2022-07-23T00:02:35;28.00;43.80
14101;DHT22;7127;49.372;8.166;2022-07-23T00:05:04;27.90;44.00
14101;DHT22;7127;49.372;8.166;2022-07-23T00:07:31;27.90;44.00
14101;DHT22;7127;49.372;8.166;2022-07-23T00:09:58;27.90;44.00
14101;DHT22;7127;49.372;8.166;2022-07-23T00:12:25;27.90;44.00
14101;DHT22;7127;49.372;8.166;2022-07-23T00:14:52;27.80;44.10
14101;DHT22;7127;49.372;8.166;2022-07-23T00:17:19;27.80;44.10
14101;DHT22;7127;49.372;8.166;2022-07-23T00:19:46;27.70;44.10
14101;DHT22;7127;49.372;8.166;2022-07-23T00:22:14;27.70;44.30
14101;DHT22;7127;49.372;8.166;2022-07-23T00:24:41;27.60;44.30
14101;DHT22;7127;49.372;8.166;2022-07-23T00:27:08;27.60;44.30
14101;DHT22;7127;49.372;8.166;2022-07-23T00:29:35;27.50;44.40
14101;DHT22;7127;49.372;8.166;2022-07-23T00:32:03;27.50;44.50
14101;DHT22;7127;49.372;8.166;2022-07-23T00:34:30;27.50;44.50
14101;DHT22;7127;49.372;8.166;2022-07-23T00:36:57;27.50;44.50
14101;DHT22;7127;49.372;8.166;2022-07-23T00:39:25;27.50;44.50
14101;DHT22;7127;49.372;8.166;2022-07-23T00:41:52;27.50;44.50
14101;DHT22;7127;49.372;8.166;2022-07-23T00:44:21;27.50;44.60
14101;DHT22;7127;49.372;8.166;2022-07-23T00:46:50;27.50;44.60
14101;DHT22;7127;49.372;8.166;2022-07-23T00:49:18;27.50;44.70
14101;DHT22;7127;49.372;8.166;2022-07-23T00:51:46;27.50;44.50
14101;DHT22;7127;49.372;8.166;2022-07-23T00:54:13;27.50;44.60
14101;DHT22;7127;49.372;8.166;2022-07-23T00:56:43;27.60;44.70
14101;DHT22;7127;49.372;8.166;2022-07-23T00:59:10;27.60;44.70
14101;DHT22;7127;49.372;8.166;2022-07-23T01:01:37;27.50;44.60
14101;DHT22;7127;49.372;8.166;2022-07-23T01:04:05;27.50;44.70
14101;DHT22;7127;49.372;8.166;2022-07-23T01:06:35;27.50;44.70
14101;DHT22;7127;49.372;8.166;2022-07-23T01:09:03;27.60;44.90
14101;DHT22;7127;49.372;8.166;2022-07-23T01:11:32;27.50;44.80
14101;DHT22;7127;49.372;8.166;2022-07-23T01:14:08;27.50;44.70
14101;DHT22;7127;49.372;8.166;2022-07-23T01:16:35;27.60;44.80
14101;DHT22;7127;49.372;8.166;2022-07-23T01:19:02;27.50;44.70
14101;DHT22;7127;49.372;8.166;2022-07-23T01:21:33;27.60;44.70
14101;DHT22;7127;49.372;8.166;2022-07-23T01:24:02;27.50;44.60
14101;DHT22;7127;49.372;8.166;2022-07-23T01:26:29;27.60;44.70
14101;DHT22;7127;49.372;8.166;2022-07-23T01:28:56;27.50;44.60
14101;DHT22;7127;49.372;8.166;2022-07-23T01:31:23;27.50;44.50
14101;DHT22;7127;49.372;8.166;2022-07-23T01:33:51;27.50;44.50
14101;DHT22;7127;49.372;8.166;2022-07-23T01:36:18;27.50;44.50
14101;DHT22;7127;49.372;8.166;2022-07-23T01:38:45;27.60;44.60
14101;DHT22;7127;49.372;8.166;2022-07-23T01:41:13;27.50;44.60
14101;DHT22;7127;49.372;8.166;2022-07-23T01:43:40;27.50;44.70
14101;DHT22;7127;49.372;8.166;2022-07-23T01:46:07;27.50;44.80
14101;DHT22;7127;49.372;8.166;2022-07-23T01:48:34;27.50;44.80
14101;DHT22;7127;49.372;8.166;2022-07-23T01:51:01;27.50;44.90
14101;DHT22;7127;49.372;8.166;2022-07-23T01:53:28;27.50;44.90
14101;DHT22;7127;49.372;8.166;2022-07-23T01:55:56;27.50;44.90
14101;DHT22;7127;49.372;8.166;2022-07-23T01:58:26;27.50;44.90
14101;DHT22;7127;49.372;8.166;2022-07-23T02:00:53;27.40;44.90
14101;DHT22;7127;49.372;8.166;2022-07-23T02:03:20;27.40;44.90
14101;DHT22;7127;49.372;8.166;2022-07-23T02:05:48;27.40;45.00
14101;DHT22;7127;49.372;8.166;2022-07-23T02:08:15;27.40;44.90
14101;DHT22;7127;49.372;8.166;2022-07-23T02:10:43;27.40;45.10
14101;DHT22;7127;49.372;8.166;2022-07-23T02:13:10;27.30;45.10
14101;DHT22;7127;49.372;8.166;2022-07-23T02:15:38;27.30;45.10
14101;DHT22;7127;49.372;8.166;2022-07-23T02:18:05;27.30;45.10
14101;DHT22;7127;49.372;8.166;2022-07-23T02:20:33;27.30;45.20
14101;DHT22;7127;49.372;8.166;2022-07-23T02:23:04;27.30;45.30
14101;DHT22;7127;49.372;8.166;2022-07-23T02:25:31;27.30;45.30
14101;DHT22;7127;49.372;8.166;2022-07-23T02:27:58;27.30;45.20
14101;DHT22;7127;49.372;8.166;2022-07-23T02:30:25;27.20;45.10
14101;DHT22;7127;49.372;8.166;2022-07-23T02:32:53;27.20;45.10
14101;DHT22;7127;49.372;8.166;2022-07-23T02:35:20;27.20;45.10
14101;DHT22;7127;49.372;8.166;2022-07-23T02:37:47;27.20;45.10
14101;DHT22;7127;49.372;8.166;2022-07-23T02:40:14;27.20;45.10
14101;DHT22;7127;49.372;8.166;2022-07-23T02:42:41;27.20;45.10
14101;DHT22;7127;49.372;8.166;2022-07-23T02:45:08;27.20;45.10
14101;DHT22;7127;49.372;8.166;2022-07-23T02:47:35;27.10;45.10
14101;DHT22;7127;49.372;8.166;2022-07-23T02:50:05;27.10;45.00
14101;DHT22;7127;49.372;8.166;2022-07-23T02:52:32;27.10;45.10
14101;DHT22;7127;49.372;8.166;2022-07-23T02:54:59;27.10;45.20
14101;DHT22;7127;49.372;8.166;2022-07-23T02:57:26;27.10;45.30
14101;DHT22;7127;49.372;8.166;2022-07-23T02:59:53;27.00;45.30
14101;DHT22;7127;49.372;8.166;2022-07-23T03:02:20;27.00;45.30
14101;DHT22;7127;49.372;8.166;2022-07-23T03:04:47;27.00;45.40
14101;DHT22;7127;49.372;8.166;2022-07-23T03:07:17;27.00;45.50
14101;DHT22;7127;49.372;8.166;2022-07-23T03:09:44;27.00;45.50
14101;DHT22;7127;49.372;8.166;2022-07-23T03:12:11;27.00;45.60
14101;DHT22;7127;49.372;8.166;2022-07-23T03:14:37;26.90;45.50
14101;DHT22;7127;49.372;8.166;2022-07-23T03:17:04;26.90;45.60
14101;DHT22;7127;49.372;8.166;2022-07-23T03:19:31;26.90;45.70
14101;DHT22;7127;49.372;8.166;2022-07-23T03:21:58;26.90;45.70
14101;DHT22;7127;49.372;8.166;2022-07-23T03:24:27;26.90;45.70
14101;DHT22;7127;49.372;8.166;2022-07-23T03:27:15;26.90;45.80
14101;DHT22;7127;49.372;8.166;2022-07-23T03:29:42;26.80;45.80
14101;DHT22;7127;49.372;8.166;2022-07-23T03:32:09;26.80;45.80
14101;DHT22;7127;49.372;8.166;2022-07-23T03:34:36;26.80;45.90
14101;DHT22;7127;49.372;8.166;2022-07-23T03:37:03;26.80;45.90
14101;DHT22;7127;49.372;8.166;2022-07-23T03:39:32;26.80;46.10
14101;DHT22;7127;49.372;8.166;2022-07-23T03:41:59;26.80;46.10
14101;DHT22;7127;49.372;8.166;2022-07-23T03:44:26;26.80;46.20
14101;DHT22;7127;49.372;8.166;2022-07-23T03:46:53;26.80;46.20
14101;DHT22;7127;49.372;8.166;2022-07-23T03:49:20;26.80;46.40
14101;DHT22;7127;49.372;8.166;2022-07-23T03:51:47;26.80;46.60
14101;DHT22;7127;49.372;8.166;2022-07-23T03:54:14;26.80;47.30
14101;DHT22;7127;49.372;8.166;2022-07-23T03:56:42;26.80;47.60
14101;DHT22;7127;49.372;8.166;2022-07-23T03:59:09;26.80;47.80
14101;DHT22;7127;49.372;8.166;2022-07-23T04:01:36;26.70;47.90
14101;DHT22;7127;49.372;8.166;2022-07-23T04:04:04;26.70;48.00
14101;DHT22;7127;49.372;8.166;2022-07-23T04:06:31;26.70;48.20
14101;DHT22;7127;49.372;8.166;2022-07-23T04:08:58;26.60;48.50
14101;DHT22;7127;49.372;8.166;2022-07-23T04:11:25;26.60;48.40
14101;DHT22;7127;49.372;8.166;2022-07-23T04:13:54;26.60;48.60
14101;DHT22;7127;49.372;8.166;2022-07-23T04:16:21;26.50;48.60
14101;DHT22;7127;49.372;8.166;2022-07-23T04:18:48;26.50;48.90
14101;DHT22;7127;49.372;8.166;2022-07-23T04:21:14;26.40;48.90
14101;DHT22;7127;49.372;8.166;2022-07-23T04:23:41;26.40;49.20
14101;DHT22;7127;49.372;8.166;2022-07-23T04:26:08;26.30;49.40
14101;DHT22;7127;49.372;8.166;2022-07-23T04:28:35;26.30;49.40
14101;DHT22;7127;49.372;8.166;2022-07-23T04:31:04;26.30;49.40
14101;DHT22;7127;49.372;8.166;2022-07-23T04:33:31;26.30;49.70
14101;DHT22;7127;49.372;8.166;2022-07-23T04:35:58;26.30;49.80
14101;DHT22;7127;49.372;8.166;2022-07-23T04:38:25;26.20;50.00
14101;DHT22;7127;49.372;8.166;2022-07-23T04:40:52;26.20;50.30
14101;DHT22;7127;49.372;8.166;2022-07-23T04:43:19;26.20;50.60
14101;DHT22;7127;49.372;8.166;2022-07-23T04:45:46;26.20;50.60
14101;DHT22;7127;49.372;8.166;2022-07-23T04:48:14;26.10;50.60
14101;DHT22;7127;49.372;8.166;2022-07-23T04:50:41;26.10;50.60
14101;DHT22;7127;49.372;8.166;2022-07-23T04:53:09;26.10;51.00
14101;DHT22;7127;49.372;8.166;2022-07-23T04:55:36;26.10;51.10
14101;DHT22;7127;49.372;8.166;2022-07-23T04:58:03;26.00;51.50
14101;DHT22;7127;49.372;8.166;2022-07-23T05:00:30;26.00;51.70
14101;DHT22;7127;49.372;8.166;2022-07-23T05:02:57;26.00;52.20
14101;DHT22;7127;49.372;8.166;2022-07-23T05:05:25;25.90;51.70
14101;DHT22;7127;49.372;8.166;2022-07-23T05:07:52;25.90;52.10
14101;DHT22;7127;49.372;8.166;2022-07-23T05:10:19;25.80;52.30
14101;DHT22;7127;49.372;8.166;2022-07-23T05:12:46;25.80;52.50
14101;DHT22;7127;49.372;8.166;2022-07-23T05:15:13;25.80;52.60
14101;DHT22;7127;49.372;8.166;2022-07-23T05:17:40;25.80;52.50
14101;DHT22;7127;49.372;8.166;2022-07-23T05:20:08;25.80;52.70
14101;DHT22;7127;49.372;8.166;2022-07-23T05:22:36;25.80;52.70
14101;DHT22;7127;49.372;8.166;2022-07-23T05:25:04;25.70;53.00
14101;DHT22;7127;49.372;8.166;2022-07-23T05:27:31;25.70;52.90
14101;DHT22;7127;49.372;8.166;2022-07-23T05:29:58;25.60;53.10
14101;DHT22;7127;49.372;8.166;2022-07-23T05:32:25;25.60;53.70
14101;DHT22;7127;49.372;8.166;2022-07-23T05:34:52;25.50;53.40
14101;DHT22;7127;49.372;8.166;2022-07-23T05:37:19;25.50;53.70
14101;DHT22;7127;49.372;8.166;2022-07-23T05:39:47;25.50;53.50
14101;DHT22;7127;49.372;8.166;2022-07-23T05:42:14;25.50;53.60
14101;DHT22;7127;49.372;8.166;2022-07-23T05:44:42;25.40;53.50
14101;DHT22;7127;49.372;8.166;2022-07-23T05:47:09;25.40;53.70
14101;DHT22;7127;49.372;8.166;2022-07-23T05:49:37;25.40;53.80
14101;DHT22;7127;49.372;8.166;2022-07-23T05:52:05;25.50;54.00
14101;DHT22;7127;49.372;8.166;2022-07-23T05:54:34;25.50;54.00
14101;DHT22;7127;49.372;8.166;2022-07-23T05:57:03;25.50;54.10
14101;DHT22;7127;49.372;8.166;2022-07-23T05:59:30;25.60;54.20
14101;DHT22;7127;49.372;8.166;2022-07-23T06:01:57;25.60;54.20
14101;DHT22;7127;49.372;8.166;2022-07-23T06:04:24;25.60;54.40
14101;DHT22;7127;49.372;8.166;2022-07-23T06:06:51;25.60;54.50
14101;DHT22;7127;49.372;8.166;2022-07-23T06:09:18;25.70;54.90
14101;DHT22;7127;49.372;8.166;2022-07-23T06:11:45;25.70;55.00
14101;DHT22;7127;49.372;8.166;2022-07-23T06:14:13;25.80;55.10
14101;DHT22;7127;49.372;8.166;2022-07-23T06:16:40;25.90;55.00
14101;DHT22;7127;49.372;8.166;2022-07-23T06:19:07;25.90;55.00
14101;DHT22;7127;49.372;8.166;2022-07-23T06:21:34;25.90;55.00
14101;DHT22;7127;49.372;8.166;2022-07-23T06:24:01;26.00;55.10
14101;DHT22;7127;49.372;8.166;2022-07-23T06:26:28;26.00;55.10
14101;DHT22;7127;49.372;8.166;2022-07-23T06:28:55;26.10;55.00
14101;DHT22;7127;49.372;8.166;2022-07-23T06:31:23;26.10;54.90
14101;DHT22;7127;49.372;8.166;2022-07-23T06:33:50;26.20;54.80
14101;DHT22;7127;49.372;8.166;2022-07-23T06:36:17;26.20;54.70
14101;DHT22;7127;49.372;8.166;2022-07-23T06:38:44;26.20;54.60
14101;DHT22;7127;49.372;8.166;2022-07-23T06:41:11;26.20;54.50
14101;DHT22;7127;49.372;8.166;2022-07-23T06:43:38;26.20;54.50
14101;DHT22;7127;49.372;8.166;2022-07-23T06:46:05;26.30;54.40
14101;DHT22;7127;49.372;8.166;2022-07-23T06:48:33;26.20;54.30
14101;DHT22;7127;49.372;8.166;2022-07-23T06:51:01;26.20;54.30
14101;DHT22;7127;49.372;8.166;2022-07-23T06:53:28;26.20;54.30
14101;DHT22;7127;49.372;8.166;2022-07-23T06:55:55;26.20;54.40
14101;DHT22;7127;49.372;8.166;2022-07-23T06:58:22;26.20;54.50
14101;DHT22;7127;49.372;8.166;2022-07-23T07:00:49;26.20;54.60
14101;DHT22;7127;49.372;8.166;2022-07-23T07:03:17;26.30;54.80
14101;DHT22;7127;49.372;8.166;2022-07-23T07:05:46;26.30;55.00
14101;DHT22;7127;49.372;8.166;2022-07-23T07:08:13;26.40;55.10
14101;DHT22;7127;49.372;8.166;2022-07-23T07:10:40;26.40;55.00
14101;DHT22;7127;49.372;8.166;2022-07-23T07:13:07;26.60;54.90
14101;DHT22;7127;49.372;8.166;2022-07-23T07:15:34;26.60;54.70
14101;DHT22;7127;49.372;8.166;2022-07-23T07:18:01;26.70;54.70
14101;DHT22;7127;49.372;8.166;2022-07-23T07:20:28;26.70;54.60
14101;DHT22;7127;49.372;8.166;2022-07-23T07:22:56;26.80;54.60
14101;DHT22;7127;49.372;8.166;2022-07-23T07:25:23;26.90;54.60
14101;DHT22;7127;49.372;8.166;2022-07-23T07:27:50;26.90;54.50
14101;DHT22;7127;49.372;8.166;2022-07-23T07:30:17;27.00;54.50
14101;DHT22;7127;49.372;8.166;2022-07-23T07:32:44;27.00;54.40
14101;DHT22;7127;49.372;8.166;2022-07-23T07:35:11;27.10;54.40
14101;DHT22;7127;49.372;8.166;2022-07-23T07:37:38;27.20;54.30
14101;DHT22;7127;49.372;8.166;2022-07-23T07:40:08;27.20;54.20
14101;DHT22;7127;49.372;8.166;2022-07-23T07:42:44;27.30;54.30
14101;DHT22;7127;49.372;8.166;2022-07-23T07:45:11;27.30;54.30
14101;DHT22;7127;49.372;8.166;2022-07-23T07:47:38;27.30;54.00
14101;DHT22;7127;49.372;8.166;2022-07-23T07:50:06;27.40;54.10
14101;DHT22;7127;49.372;8.166;2022-07-23T07:52:33;27.40;54.10
14101;DHT22;7127;49.372;8.166;2022-07-23T07:55:02;27.50;54.10
14101;DHT22;7127;49.372;8.166;2022-07-23T07:57:31;27.50;53.90
14101;DHT22;7127;49.372;8.166;2022-07-23T07:59:58;27.60;53.70
14101;DHT22;7127;49.372;8.166;2022-07-23T08:02:25;27.60;53.50
14101;DHT22;7127;49.372;8.166;2022-07-23T08:04:52;27.70;53.40
14101;DHT22;7127;49.372;8.166;2022-07-23T08:07:19;27.70;53.40
14101;DHT22;7127;49.372;8.166;2022-07-23T08:09:46;27.70;53.40
14101;DHT22;7127;49.372;8.166;2022-07-23T08:12:13;27.80;53.40
14101;DHT22;7127;49.372;8.166;2022-07-23T08:14:42;27.80;53.40
14101;DHT22;7127;49.372;8.166;2022-07-23T08:17:10;28.00;53.40
14101;DHT22;7127;49.372;8.166;2022-07-23T08:19:37;28.00;53.40
14101;DHT22;7127;49.372;8.166;2022-07-23T08:22:04;28.10;53.40
14101;DHT22;7127;49.372;8.166;2022-07-23T08:24:31;28.10;53.10
14101;DHT22;7127;49.372;8.166;2022-07-23T08:26:58;28.20;53.10
14101;DHT22;7127;49.372;8.166;2022-07-23T08:29:25;28.20;52.80
14101;DHT22;7127;49.372;8.166;2022-07-23T08:31:53;28.30;52.70
14101;DHT22;7127;49.372;8.166;2022-07-23T08:34:20;28.40;52.60
14101;DHT22;7127;49.372;8.166;2022-07-23T08:36:47;28.50;52.50
14101;DHT22;7127;49.372;8.166;2022-07-23T08:39:14;28.50;52.30
14101;DHT22;7127;49.372;8.166;2022-07-23T08:41:41;28.60;52.10
14101;DHT22;7127;49.372;8.166;2022-07-23T08:44:09;28.60;52.10
14101;DHT22;7127;49.372;8.166;2022-07-23T08:46:36;28.70;52.20
14101;DHT22;7127;49.372;8.166;2022-07-23T08:49:07;28.70;51.90
14101;DHT22;7127;49.372;8.166;2022-07-23T08:51:34;28.80;51.80
14101;DHT22;7127;49.372;8.166;2022-07-23T08:54:02;28.80;51.60
14101;DHT22;7127;49.372;8.166;2022-07-23T08:56:29;28.80;51.40
14101;DHT22;7127;49.372;8.166;2022-07-23T08:58:57;28.90;51.30
14101;DHT22;7127;49.372;8.166;2022-07-23T09:01:24;29.00;51.30
14101;DHT22;7127;49.372;8.166;2022-07-23T09:03:51;29.00;51.00
14101;DHT22;7127;49.372;8.166;2022-07-23T09:06:20;29.00;51.00
14101;DHT22;7127;49.372;8.166;2022-07-23T09:08:47;29.10;51.10
14101;DHT22;7127;49.372;8.166;2022-07-23T09:11:16;29.10;51.20
14101;DHT22;7127;49.372;8.166;2022-07-23T09:13:47;29.20;51.20
14101;DHT22;7127;49.372;8.166;2022-07-23T09:16:16;29.20;51.00
14101;DHT22;7127;49.372;8.166;2022-07-23T09:18:46;29.30;51.00
14101;DHT22;7127;49.372;8.166;2022-07-23T09:21:21;29.40;50.70
14101;DHT22;7127;49.372;8.166;2022-07-23T09:23:53;29.40;50.70
14101;DHT22;7127;49.372;8.166;2022-07-23T09:26:23;29.40;50.70
14101;DHT22;7127;49.372;8.166;2022-07-23T09:28:53;29.40;50.60
14101;DHT22;7127;49.372;8.166;2022-07-23T09:31:20;29.40;50.60
14101;DHT22;7127;49.372;8.166;2022-07-23T09:33:47;29.50;50.70
14101;DHT22;7127;49.372;8.166;2022-07-23T09:36:14;29.50;50.70
14101;DHT22;7127;49.372;8.166;2022-07-23T09:38:49;29.60;50.80
14101;DHT22;7127;49.372;8.166;2022-07-23T09:41:17;29.60;50.40
14101;DHT22;7127;49.372;8.166;2022-07-23T09:43:44;29.70;50.50
14101;DHT22;7127;49.372;8.166;2022-07-23T09:46:18;29.70;50.60
14101;DHT22;7127;49.372;8.166;2022-07-23T09:48:46;29.90;50.60
14101;DHT22;7127;49.372;8.166;2022-07-23T09:51:13;29.90;50.60
14101;DHT22;7127;49.372;8.166;2022-07-23T09:53:42;30.00;50.60
14101;DHT22;7127;49.372;8.166;2022-07-23T10:01:43;30.20;50.30
14101;DHT22;7127;49.372;8.166;2022-07-23T10:04:11;30.30;50.00
14101;DHT22;7127;49.372;8.166;2022-07-23T10:06:39;30.40;49.90
14101;DHT22;7127;49.372;8.166;2022-07-23T10:09:08;30.50;49.70
14101;DHT22;7127;49.372;8.166;2022-07-23T10:11:37;30.60;49.50
14101;DHT22;7127;49.372;8.166;2022-07-23T10:14:05;30.60;49.30
14101;DHT22;7127;49.372;8.166;2022-07-23T10:16:32;30.70;48.80
14101;DHT22;7127;49.372;8.166;2022-07-23T10:19:02;30.70;48.80
14101;DHT22;7127;49.372;8.166;2022-07-23T10:21:37;30.70;48.60
14101;DHT22;7127;49.372;8.166;2022-07-23T10:24:16;30.80;48.30
14101;DHT22;7127;49.372;8.166;2022-07-23T10:26:52;30.80;48.40
14101;DHT22;7127;49.372;8.166;2022-07-23T10:29:36;30.80;48.50
14101;DHT22;7127;49.372;8.166;2022-07-23T10:32:17;30.80;48.30
14101;DHT22;7127;49.372;8.166;2022-07-23T10:34:52;30.80;48.30
14101;DHT22;7127;49.372;8.166;2022-07-23T10:37:24;30.90;48.30
14101;DHT22;7127;49.372;8.166;2022-07-23T10:40:09;31.00;48.00
14101;DHT22;7127;49.372;8.166;2022-07-23T10:42:37;31.00;47.90
14101;DHT22;7127;49.372;8.166;2022-07-23T10:45:22;31.00;48.10
14101;DHT22;7127;49.372;8.166;2022-07-23T10:47:50;31.10;47.80
14101;DHT22;7127;49.372;8.166;2022-07-23T10:50:23;31.10;47.80
14101;DHT22;7127;49.372;8.166;2022-07-23T10:53:13;31.10;47.70
14101;DHT22;7127;49.372;8.166;2022-07-23T10:55:47;31.30;47.00
14101;DHT22;7127;49.372;8.166;2022-07-23T11:01:32;31.30;47.10
14101;DHT22;7127;49.372;8.166;2022-07-23T11:04:00;31.30;47.20
14101;DHT22;7127;49.372;8.166;2022-07-23T11:09:28;31.40;46.60
14101;DHT22;7127;49.372;8.166;2022-07-23T11:14:59;31.40;46.50
14101;DHT22;7127;49.372;8.166;2022-07-23T11:17:28;31.50;46.50
14101;DHT22;7127;49.372;8.166;2022-07-23T11:20:17;31.60;46.60
14101;DHT22;7127;49.372;8.166;2022-07-23T11:22:51;31.60;46.20
14101;DHT22;7127;49.372;8.166;2022-07-23T11:25:33;31.70;46.60
14101;DHT22;7127;49.372;8.166;2022-07-23T11:28:16;31.80;46.30
14101;DHT22;7127;49.372;8.166;2022-07-23T11:30:44;31.90;46.30
14101;DHT22;7127;49.372;8.166;2022-07-23T11:33:20;32.00;46.00
14101;DHT22;7127;49.372;8.166;2022-07-23T11:35:51;32.10;45.10
14101;DHT22;7127;49.372;8.166;2022-07-23T11:38:27;32.10;45.40
14101;DHT22;7127;49.372;8.166;2022-07-23T11:40:55;32.20;45.00
14101;DHT22;7127;49.372;8.166;2022-07-23T11:43:23;32.20;45.00
14101;DHT22;7127;49.372;8.166;2022-07-23T11:45:53;32.30;45.00
14101;DHT22;7127;49.372;8.166;2022-07-23T11:48:22;32.30;45.00
14101;DHT22;7127;49.372;8.166;2022-07-23T11:50:50;32.30;45.00
14101;DHT22;7127;49.372;8.166;2022-07-23T11:53:24;32.30;45.00
14101;DHT22;7127;49.372;8.166;2022-07-23T11:55:51;32.40;44.50
14101;DHT22;7127;49.372;8.166;2022-07-23T11:58:19;32.30;45.20
14101;DHT22;7127;49.372;8.166;2022-07-23T12:00:47;32.40;44.60
14101;DHT22;7127;49.372;8.166;2022-07-23T12:03:14;32.40;44.60
14101;DHT22;7127;49.372;8.166;2022-07-23T12:05:42;32.40;44.40
14101;DHT22;7127;49.372;8.166;2022-07-23T12:08:09;32.40;44.30
14101;DHT22;7127;49.372;8.166;2022-07-23T12:10:39;32.50;44.20
14101;DHT22;7127;49.372;8.166;2022-07-23T12:13:10;32.50;44.10
14101;DHT22;7127;49.372;8.166;2022-07-23T12:15:41;32.50;43.80
14101;DHT22;7127;49.372;8.166;2022-07-23T12:18:09;32.50;43.70
14101;DHT22;7127;49.372;8.166;2022-07-23T12:20:38;32.60;43.40
14101;DHT22;7127;49.372;8.166;2022-07-23T12:23:08;32.60;43.50
14101;DHT22;7127;49.372;8.166;2022-07-23T12:25:37;32.60;43.50
14101;DHT22;7127;49.372;8.166;2022-07-23T12:28:06;32.70;43.50
14101;DHT22;7127;49.372;8.166;2022-07-23T12:30:37;32.80;43.60
14101;DHT22;7127;49.372;8.166;2022-07-23T12:33:05;32.90;43.60
14101;DHT22;7127;49.372;8.166;2022-07-23T12:35:37;33.00;43.40
14101;DHT22;7127;49.372;8.166;2022-07-23T12:38:09;33.10;43.00
14101;DHT22;7127;49.372;8.166;2022-07-23T12:40:43;33.10;42.60
14101;DHT22;7127;49.372;8.166;2022-07-23T12:43:11;33.00;42.00
14101;DHT22;7127;49.372;8.166;2022-07-23T12:45:46;32.90;41.50
14101;DHT22;7127;49.372;8.166;2022-07-23T12:48:23;32.80;41.50
14101;DHT22;7127;49.372;8.166;2022-07-23T12:50:52;32.60;41.70
14101;DHT22;7127;49.372;8.166;2022-07-23T12:53:22;32.40;41.80
14101;DHT22;7127;49.372;8.166;2022-07-23T12:55:51;32.30;41.80
14101;DHT22;7127;49.372;8.166;2022-07-23T12:58:23;32.10;42.10
14101;DHT22;7127;49.372;8.166;2022-07-23T13:00:54;32.00;42.40
14101;DHT22;7127;49.372;8.166;2022-07-23T13:03:23;31.90;42.50
14101;DHT22;7127;49.372;8.166;2022-07-23T13:05:50;31.80;42.80
14101;DHT22;7127;49.372;8.166;2022-07-23T13:08:19;31.80;43.10
14101;DHT22;7127;49.372;8.166;2022-07-23T13:10:46;31.80;43.40
14101;DHT22;7127;49.372;8.166;2022-07-23T13:13:17;31.80;43.30
14101;DHT22;7127;49.372;8.166;2022-07-23T13:15:44;31.80;43.40
14101;DHT22;7127;49.372;8.166;2022-07-23T13:18:10;31.80;43.50
14101;DHT22;7127;49.372;8.166;2022-07-23T13:20:37;31.90;43.40
14101;DHT22;7127;49.372;8.166;2022-07-23T13:23:05;31.90;43.20
14101;DHT22;7127;49.372;8.166;2022-07-23T13:25:34;31.90;43.10
14101;DHT22;7127;49.372;8.166;2022-07-23T13:28:01;31.90;43.00
14101;DHT22;7127;49.372;8.166;2022-07-23T13:30:28;32.00;42.90
14101;DHT22;7127;49.372;8.166;2022-07-23T13:32:55;32.00;42.80
14101;DHT22;7127;49.372;8.166;2022-07-23T13:35:22;32.00;42.80
14101;DHT22;7127;49.372;8.166;2022-07-23T13:37:49;32.10;42.70
14101;DHT22;7127;49.372;8.166;2022-07-23T13:40:16;32.00;42.70
14101;DHT22;7127;49.372;8.166;2022-07-23T13:42:44;32.00;42.50
14101;DHT22;7127;49.372;8.166;2022-07-23T13:45:11;32.00;42.50
14101;DHT22;7127;49.372;8.166;2022-07-23T13:47:38;32.00;42.50
14101;DHT22;7127;49.372;8.166;2022-07-23T13:50:06;32.00;42.50
14101;DHT22;7127;49.372;8.166;2022-07-23T13:52:33;32.00;42.60
14101;DHT22;7127;49.372;8.166;2022-07-23T13:55:00;32.00;42.50
14101;DHT22;7127;49.372;8.166;2022-07-23T13:57:29;31.90;42.40
14101;DHT22;7127;49.372;8.166;2022-07-23T13:59:58;32.00;42.60
14101;DHT22;7127;49.372;8.166;2022-07-23T14:02:25;32.00;42.60
14101;DHT22;7127;49.372;8.166;2022-07-23T14:04:52;32.00;42.70
14101;DHT22;7127;49.372;8.166;2022-07-23T14:07:19;32.00;42.70
14101;DHT22;7127;49.372;8.166;2022-07-23T14:09:46;32.00;42.50
14101;DHT22;7127;49.372;8.166;2022-07-23T14:12:13;32.00;42.40
14101;DHT22;7127;49.372;8.166;2022-07-23T14:14:40;32.00;42.50
14101;DHT22;7127;49.372;8.166;2022-07-23T14:17:10;32.10;42.60
14101;DHT22;7127;49.372;8.166;2022-07-23T14:19:37;32.10;42.50
14101;DHT22;7127;49.372;8.166;2022-07-23T14:22:04;32.20;42.60
14101;DHT22;7127;49.372;8.166;2022-07-23T14:24:31;32.30;42.60
14101;DHT22;7127;49.372;8.166;2022-07-23T14:26:59;32.40;42.40
14101;DHT22;7127;49.372;8.166;2022-07-23T14:29:27;32.40;42.30
14101;DHT22;7127;49.372;8.166;2022-07-23T14:31:54;32.50;42.20
14101;DHT22;7127;49.372;8.166;2022-07-23T14:34:22;32.50;42.00
14101;DHT22;7127;49.372;8.166;2022-07-23T14:36:49;32.60;41.80
14101;DHT22;7127;49.372;8.166;2022-07-23T14:39:16;32.60;41.80
14101;DHT22;7127;49.372;8.166;2022-07-23T14:41:43;32.70;41.70
14101;DHT22;7127;49.372;8.166;2022-07-23T14:44:10;32.70;41.70
14101;DHT22;7127;49.372;8.166;2022-07-23T14:46:37;32.70;41.70
14101;DHT22;7127;49.372;8.166;2022-07-23T14:49:04;32.80;41.50
14101;DHT22;7127;49.372;8.166;2022-07-23T14:51:33;32.70;41.40
14101;DHT22;7127;49.372;8.166;2022-07-23T14:53:59;32.80;41.50
14101;DHT22;7127;49.372;8.166;2022-07-23T14:56:26;32.80;41.40
14101;DHT22;7127;49.372;8.166;2022-07-23T14:58:53;32.90;41.20
14101;DHT22;7127;49.372;8.166;2022-07-23T15:01:21;32.90;41.30
14101;DHT22;7127;49.372;8.166;2022-07-23T15:03:48;32.90;41.20
14101;DHT22;7127;49.372;8.166;2022-07-23T15:06:16;32.80;41.10
14101;DHT22;7127;49.372;8.166;2022-07-23T15:08:44;32.90;41.00
14101;DHT22;7127;49.372;8.166;2022-07-23T15:11:11;32.90;40.60
14101;DHT22;7127;49.372;8.166;2022-07-23T15:13:38;32.90;40.60
14101;DHT22;7127;49.372;8.166;2022-07-23T15:16:06;32.90;40.50
14101;DHT22;7127;49.372;8.166;2022-07-23T15:18:33;32.90;40.60
14101;DHT22;7127;49.372;8.166;2022-07-23T15:21:01;32.90;40.60
14101;DHT22;7127;49.372;8.166;2022-07-23T15:23:28;32.90;40.40
14101;DHT22;7127;49.372;8.166;2022-07-23T15:25:57;32.90;40.30
14101;DHT22;7127;49.372;8.166;2022-07-23T15:28:24;32.90;40.20
14101;DHT22;7127;49.372;8.166;2022-07-23T15:30:52;32.90;40.10
14101;DHT22;7127;49.372;8.166;2022-07-23T15:33:19;33.00;40.10
14101;DHT22;7127;49.372;8.166;2022-07-23T15:35:46;33.00;40.10
14101;DHT22;7127;49.372;8.166;2022-07-23T15:38:13;33.10;40.10
14101;DHT22;7127;49.372;8.166;2022-07-23T15:40:41;33.20;40.00
14101;DHT22;7127;49.372;8.166;2022-07-23T15:43:09;33.30;39.60
14101;DHT22;7127;49.372;8.166;2022-07-23T15:45:36;33.30;39.30
14101;DHT22;7127;49.372;8.166;2022-07-23T15:48:04;33.40;39.20
14101;DHT22;7127;49.372;8.166;2022-07-23T15:50:31;33.40;39.00
14101;DHT22;7127;49.372;8.166;2022-07-23T15:52:58;33.50;38.60
14101;DHT22;7127;49.372;8.166;2022-07-23T15:55:25;33.50;38.50
14101;DHT22;7127;49.372;8.166;2022-07-23T15:57:53;33.50;38.10
14101;DHT22;7127;49.372;8.166;2022-07-23T16:00:21;33.60;38.00
14101;DHT22;7127;49.372;8.166;2022-07-23T16:02:48;33.60;37.70
14101;DHT22;7127;49.372;8.166;2022-07-23T16:05:16;33.70;37.80